sensor_id;sensor_type;location;lat;lon;timestamp;temperature;humidity
35246;DHT22;21379;50.962;6.960;2023-07-16T00:00:58;20.50;99.90
35246;DHT22;21379;50.962;6.960;2023-07-16T00:03:25;20.40;99.90
35246;DHT22;21379;50.962;6.960;2023-07-16T00:05:52;20.40;99.90
35246;DHT22;21379;50.962;6.960;2023-07-16T00:08:19;20.40;99.90
35246;DHT22;21379;50.962;6.960;2023-07-16T00:10:47;20.50;99.90
35246;DHT22;21379;50.962;6.960;2023-07-16T00:13:14;20.40;99.90
35246;DHT22;21379;50.962;6.960;2023-07-16T00:15:41;20.40;99.90
35246;DHT22;21379;50.962;6.960;2023-07-16T00:18:08;20.40;99.90
35246;DHT22;21379;50.962;6.960;2023-07-16T00:20:35;20.40;99.90
35246;DHT22;21379;50.962;6.960;2023-07-16T00:23:02;20.40;99.90
35246;DHT22;21379;50.962;6.960;2023-07-16T00:25:29;20.30;99.90
35246;DHT22;21379;50.962;6.960;2023-07-16T00:27:57;20.30;99.90
35246;DHT22;21379;50.962;6.960;2023-07-16T00:30:24;20.20;99.90
35246;DHT22;21379;50.962;6.960;2023-07-16T00:32:51;20.10;99.90
35246;DHT22;21379;50.962;6.960;2023-07-16T00:35:18;20.20;99.90
35246;DHT22;21379;50.962;6.960;2023-07-16T00:37:45;20.20;99.90
35246;DHT22;21379;50.962;6.960;2023-07-16T00:40:12;20.20;99.90
35246;DHT22;21379;50.962;6.960;2023-07-16T00:42:39;20.20;99.90
35246;DHT22;21379;50.962;6.960;2023-07-16T00:45:11;20.20;99.90
35246;DHT22;21379;50.962;6.960;2023-07-16T00:47:39;20.10;99.90
35246;DHT22;21379;50.962;6.960;2023-07-16T00:50:07;20.10;99.90
35246;DHT22;21379;50.962;6.960;2023-07-16T00:52:34;19.90;99.90
35246;DHT22;21379;50.962;6.960;2023-07-16T00:55:01;20.00;99.90
35246;DHT22;21379;50.962;6.960;2023-07-16T00:57:29;19.90;99.90
35246;DHT22;21379;50.962;6.960;2023-07-16T00:59:56;19.80;99.90
35246;DHT22;21379;50.962;6.960;2023-07-16T01:02:25;19.80;99.90
35246;DHT22;21379;50.962;6.960;2023-07-16T01:04:52;19.70;99.90
35246;DHT22;21379;50.962;6.960;2023-07-16T01:07:20;19.70;99.90
35246;DHT22;21379;50.962;6.960;2023-07-16T01:09:51;19.60;99.90
35246;DHT22;21379;50.962;6.960;2023-07-16T01:12:19;19.70;99.90
35246;DHT22;21379;50.962;6.960;2023-07-16T01:14:47;19.50;99.90
35246;DHT22;21379;50.962;6.960;2023-07-16T01:17:14;19.50;99.90
35246;DHT22;21379;50.962;6.960;2023-07-16T01:19:42;19.40;99.90
35246;DHT22;21379;50.962;6.960;2023-07-16T01:22:27;19.40;99.90
35246;DHT22;21379;50.962;6.960;2023-07-16T01:25:09;19.40;99.90
35246;DHT22;21379;50.962;6.960;2023-07-16T01:27:56;19.40;99.90
35246;DHT22;21379;50.962;6.960;2023-07-16T01:30:28;19.30;99.90
35246;DHT22;21379;50.962;6.960;2023-07-16T01:32:55;19.20;99.90
35246;DHT22;21379;50.962;6.960;2023-07-16T01:35:23;19.20;99.90
35246;DHT22;21379;50.962;6.960;2023-07-16T01:37:51;19.10;99.90
35246;DHT22;21379;50.962;6.960;2023-07-16T01:40:18;19.10;99.90
35246;DHT22;21379;50.962;6.960;2023-07-16T01:42:45;19.10;99.90
35246;DHT22;21379;50.962;6.960;2023-07-16T01:45:11;19.10;99.90
35246;DHT22;21379;50.962;6.960;2023-07-16T01:47:50;19.10;99.90
35246;DHT22;21379;50.962;6.960;2023-07-16T01:50:21;19.10;99.90
35246;DHT22;21379;50.962;6.960;2023-07-16T01:52:48;19.00;99.90
35246;DHT22;21379;50.962;6.960;2023-07-16T01:55:15;18.90;99.90
35246;DHT22;21379;50.962;6.960;2023-07-16T01:57:42;18.90;99.90
35246;DHT22;21379;50.962;6.960;2023-07-16T02:00:10;18.90;99.90
35246;DHT22;21379;50.962;6.960;2023-07-16T02:02:47;18.80;99.90
35246;DHT22;21379;50.962;6.960;2023-07-16T02:05:14;18.80;99.90
35246;DHT22;21379;50.962;6.960;2023-07-16T02:07:42;18.70;99.90
35246;DHT22;21379;50.962;6.960;2023-07-16T02:10:09;18.60;99.90
35246;DHT22;21379;50.962;6.960;2023-07-16T02:12:36;18.60;99.90
35246;DHT22;21379;50.962;6.960;2023-07-16T02:15:03;18.60;99.90
35246;DHT22;21379;50.962;6.960;2023-07-16T02:17:34;18.60;99.90
35246;DHT22;21379;50.962;6.960;2023-07-16T02:20:03;18.70;99.90
35246;DHT22;21379;50.962;6.960;2023-07-16T02:22:31;18.70;99.90
35246;DHT22;21379;50.962;6.960;2023-07-16T02:24:59;18.70;99.90
35246;DHT22;21379;50.962;6.960;2023-07-16T02:27:26;18.70;99.90
35246;DHT22;21379;50.962;6.960;2023-07-16T02:29:52;18.70;99.90
35246;DHT22;21379;50.962;6.960;2023-07-16T02:32:19;18.70;99.90
35246;DHT22;21379;50.962;6.960;2023-07-16T02:34:46;18.60;99.90
35246;DHT22;21379;50.962;6.960;2023-07-16T02:37:15;18.70;99.90
35246;DHT22;21379;50.962;6.960;2023-07-16T02:39:43;18.70;99.90
35246;DHT22;21379;50.962;6.960;2023-07-16T02:42:10;18.60;99.90
35246;DHT22;21379;50.962;6.960;2023-07-16T02:44:37;18.50;99.90
35246;DHT22;21379;50.962;6.960;2023-07-16T02:47:09;18.30;99.90
35246;DHT22;21379;50.962;6.960;2023-07-16T02:49:36;18.30;99.90
35246;DHT22;21379;50.962;6.960;2023-07-16T02:52:04;18.20;99.90
35246;DHT22;21379;50.962;6.960;2023-07-16T02:54:34;18.20;99.90
35246;DHT22;21379;50.962;6.960;2023-07-16T02:57:01;18.20;99.90
35246;DHT22;21379;50.962;6.960;2023-07-16T02:59:28;18.20;99.90
35246;DHT22;21379;50.962;6.960;2023-07-16T03:01:55;18.20;99.90
35246;DHT22;21379;50.962;6.960;2023-07-16T03:04:22;18.20;99.90
35246;DHT22;21379;50.962;6.960;2023-07-16T03:06:49;18.20;99.90
35246;DHT22;21379;50.962;6.960;2023-07-16T03:09:16;18.10;99.90
35246;DHT22;21379;50.962;6.960;2023-07-16T03:11:44;18.00;99.90
35246;DHT22;21379;50.962;6.960;2023-07-16T03:14:11;18.00;99.90
35246;DHT22;21379;50.962;6.960;2023-07-16T03:16:38;18.00;99.90
35246;DHT22;21379;50.962;6.960;2023-07-16T03:19:05;18.00;99.90
35246;DHT22;21379;50.962;6.960;2023-07-16T03:21:31;17.90;99.90
35246;DHT22;21379;50.962;6.960;2023-07-16T03:23:59;17.80;99.90
35246;DHT22;21379;50.962;6.960;2023-07-16T03:26:26;17.80;99.90
35246;DHT22;21379;50.962;6.960;2023-07-16T03:28:54;17.80;99.90
35246;DHT22;21379;50.962;6.960;2023-07-16T03:31:22;17.80;99.90
35246;DHT22;21379;50.962;6.960;2023-07-16T03:33:50;17.80;99.90
35246;DHT22;21379;50.962;6.960;2023-07-16T03:36:18;17.80;99.90
35246;DHT22;21379;50.962;6.960;2023-07-16T03:38:44;17.80;99.90
35246;DHT22;21379;50.962;6.960;2023-07-16T03:41:11;17.80;99.90
35246;DHT22;21379;50.962;6.960;2023-07-16T03:43:39;17.80;99.90
35246;DHT22;21379;50.962;6.960;2023-07-16T03:46:19;17.90;99.90
35246;DHT22;21379;50.962;6.960;2023-07-16T03:48:46;17.90;99.90
35246;DHT22;21379;50.962;6.960;2023-07-16T03:51:13;17.90;99.90
35246;DHT22;21379;50.962;6.960;2023-07-16T03:53:40;18.00;99.90
35246;DHT22;21379;50.962;6.960;2023-07-16T03:56:07;18.00;99.90
35246;DHT22;21379;50.962;6.960;2023-07-16T03:58:35;18.00;99.90
35246;DHT22;21379;50.962;6.960;2023-07-16T04:01:04;18.00;99.90
35246;DHT22;21379;50.962;6.960;2023-07-16T04:03:32;18.10;99.90
35246;DHT22;21379;50.962;6.960;2023-07-16T04:06:03;18.00;99.90
35246;DHT22;21379;50.962;6.960;2023-07-16T04:08:31;18.00;99.90
35246;DHT22;21379;50.962;6.960;2023-07-16T04:10:58;18.10;99.90
35246;DHT22;21379;50.962;6.960;2023-07-16T04:13:25;18.20;99.90
35246;DHT22;21379;50.962;6.960;2023-07-16T04:15:51;18.20;99.90
35246;DHT22;21379;50.962;6.960;2023-07-16T04:18:20;18.20;99.90
35246;DHT22;21379;50.962;6.960;2023-07-16T04:20:49;18.20;99.90
35246;DHT22;21379;50.962;6.960;2023-07-16T04:23:15;18.20;99.90
35246;DHT22;21379;50.962;6.960;2023-07-16T04:25:42;18.20;99.90
35246;DHT22;21379;50.962;6.960;2023-07-16T04:28:10;18.20;99.90
35246;DHT22;21379;50.962;6.960;2023-07-16T04:30:37;18.20;99.90
35246;DHT22;21379;50.962;6.960;2023-07-16T04:33:04;18.20;99.90
35246;DHT22;21379;50.962;6.960;2023-07-16T04:35:32;18.30;99.90
35246;DHT22;21379;50.962;6.960;2023-07-16T04:38:00;18.30;99.90
35246;DHT22;21379;50.962;6.960;2023-07-16T04:40:29;18.30;99.90
35246;DHT22;21379;50.962;6.960;2023-07-16T04:42:56;18.30;99.90
35246;DHT22;21379;50.962;6.960;2023-07-16T04:45:23;18.30;99.90
35246;DHT22;21379;50.962;6.960;2023-07-16T04:47:49;18.30;99.90
35246;DHT22;21379;50.962;6.960;2023-07-16T04:50:17;18.30;99.90
35246;DHT22;21379;50.962;6.960;2023-07-16T04:52:43;18.30;99.90
35246;DHT22;21379;50.962;6.960;2023-07-16T04:55:12;18.30;99.90
35246;DHT22;21379;50.962;6.960;2023-07-16T04:57:39;18.30;99.90
35246;DHT22;21379;50.962;6.960;2023-07-16T05:00:06;18.30;99.90
35246;DHT22;21379;50.962;6.960;2023-07-16T05:02:34;18.30;99.90
35246;DHT22;21379;50.962;6.960;2023-07-16T05:05:01;18.40;99.90
35246;DHT22;21379;50.962;6.960;2023-07-16T05:07:28;18.40;99.90
35246;DHT22;21379;50.962;6.960;2023-07-16T05:09:55;18.40;99.90
35246;DHT22;21379;50.962;6.960;2023-07-16T05:12:23;18.30;99.90
35246;DHT22;21379;50.962;6.960;2023-07-16T05:14:51;18.40;99.90
35246;DHT22;21379;50.962;6.960;2023-07-16T05:17:18;18.50;99.90
35246;DHT22;21379;50.962;6.960;2023-07-16T05:19:45;18.50;99.90
35246;DHT22;21379;50.962;6.960;2023-07-16T05:22:12;18.60;99.90
35246;DHT22;21379;50.962;6.960;2023-07-16T05:24:39;18.60;99.90
35246;DHT22;21379;50.962;6.960;2023-07-16T05:27:06;18.50;99.90
35246;DHT22;21379;50.962;6.960;2023-07-16T05:29:34;18.60;99.90
35246;DHT22;21379;50.962;6.960;2023-07-16T05:32:01;18.60;99.90
35246;DHT22;21379;50.962;6.960;2023-07-16T05:34:28;18.70;99.90
35246;DHT22;21379;50.962;6.960;2023-07-16T05:36:55;18.80;99.90
35246;DHT22;21379;50.962;6.960;2023-07-16T05:39:22;18.90;99.90
35246;DHT22;21379;50.962;6.960;2023-07-16T05:41:49;19.00;99.90
35246;DHT22;21379;50.962;6.960;2023-07-16T05:44:16;18.90;99.90
35246;DHT22;21379;50.962;6.960;2023-07-16T05:46:44;19.10;99.90
35246;DHT22;21379;50.962;6.960;2023-07-16T05:49:11;19.20;99.90
35246;DHT22;21379;50.962;6.960;2023-07-16T05:51:38;19.10;99.90
35246;DHT22;21379;50.962;6.960;2023-07-16T05:54:04;19.10;99.90
35246;DHT22;21379;50.962;6.960;2023-07-16T05:56:32;19.30;99.90
35246;DHT22;21379;50.962;6.960;2023-07-16T05:58:59;19.20;99.90
35246;DHT22;21379;50.962;6.960;2023-07-16T06:01:25;19.20;99.90
35246;DHT22;21379;50.962;6.960;2023-07-16T06:03:54;19.40;99.90
35246;DHT22;21379;50.962;6.960;2023-07-16T06:06:21;19.40;99.90
35246;DHT22;21379;50.962;6.960;2023-07-16T06:08:47;19.50;99.90
35246;DHT22;21379;50.962;6.960;2023-07-16T06:11:15;19.70;99.90
35246;DHT22;21379;50.962;6.960;2023-07-16T06:13:41;19.70;99.90
35246;DHT22;21379;50.962;6.960;2023-07-16T06:16:08;19.70;99.90
35246;DHT22;21379;50.962;6.960;2023-07-16T06:18:35;19.80;99.90
35246;DHT22;21379;50.962;6.960;2023-07-16T06:21:04;19.70;99.90
35246;DHT22;21379;50.962;6.960;2023-07-16T06:23:30;19.70;99.90
35246;DHT22;21379;50.962;6.960;2023-07-16T06:25:57;19.90;99.90
35246;DHT22;21379;50.962;6.960;2023-07-16T06:28:24;20.10;99.90
35246;DHT22;21379;50.962;6.960;2023-07-16T06:30:51;20.20;99.90
35246;DHT22;21379;50.962;6.960;2023-07-16T06:33:18;20.40;99.90
35246;DHT22;21379;50.962;6.960;2023-07-16T06:35:46;20.20;99.90
35246;DHT22;21379;50.962;6.960;2023-07-16T06:38:15;20.50;99.90
35246;DHT22;21379;50.962;6.960;2023-07-16T06:40:46;20.60;99.90
35246;DHT22;21379;50.962;6.960;2023-07-16T06:43:14;20.80;99.90
35246;DHT22;21379;50.962;6.960;2023-07-16T06:45:41;20.70;99.90
35246;DHT22;21379;50.962;6.960;2023-07-16T06:48:08;20.80;99.90
35246;DHT22;21379;50.962;6.960;2023-07-16T06:50:35;20.70;99.90
35246;DHT22;21379;50.962;6.960;2023-07-16T06:53:02;20.90;99.90
35246;DHT22;21379;50.962;6.960;2023-07-16T06:55:30;20.90;99.90
35246;DHT22;21379;50.962;6.960;2023-07-16T06:57:57;21.10;99.90
35246;DHT22;21379;50.962;6.960;2023-07-16T07:00:24;21.10;99.90
35246;DHT22;21379;50.962;6.960;2023-07-16T07:02:51;21.30;99.90
35246;DHT22;21379;50.962;6.960;2023-07-16T07:05:17;21.40;99.90
35246;DHT22;21379;50.962;6.960;2023-07-16T07:07:44;21.50;99.90
35246;DHT22;21379;50.962;6.960;2023-07-16T07:10:11;21.40;99.90
35246;DHT22;21379;50.962;6.960;2023-07-16T07:12:40;21.60;99.50
35246;DHT22;21379;50.962;6.960;2023-07-16T07:15:08;21.70;99.80
35246;DHT22;21379;50.962;6.960;2023-07-16T07:17:35;21.80;98.50
35246;DHT22;21379;50.962;6.960;2023-07-16T07:20:03;22.00;98.00
35246;DHT22;21379;50.962;6.960;2023-07-16T07:22:30;22.10;97.80
35246;DHT22;21379;50.962;6.960;2023-07-16T07:24:57;22.00;97.80
35246;DHT22;21379;50.962;6.960;2023-07-16T07:27:24;22.00;97.10
35246;DHT22;21379;50.962;6.960;2023-07-16T07:29:52;22.20;97.00
35246;DHT22;21379;50.962;6.960;2023-07-16T07:32:21;22.30;97.00
35246;DHT22;21379;50.962;6.960;2023-07-16T07:34:48;22.30;96.30
35246;DHT22;21379;50.962;6.960;2023-07-16T07:37:15;22.20;95.90
35246;DHT22;21379;50.962;6.960;2023-07-16T07:39:42;22.30;96.30
35246;DHT22;21379;50.962;6.960;2023-07-16T07:42:13;22.80;96.00
35246;DHT22;21379;50.962;6.960;2023-07-16T07:44:40;22.90;95.00
35246;DHT22;21379;50.962;6.960;2023-07-16T07:47:08;22.80;94.40
35246;DHT22;21379;50.962;6.960;2023-07-16T07:49:35;22.80;94.40
35246;DHT22;21379;50.962;6.960;2023-07-16T07:52:02;23.10;94.00
35246;DHT22;21379;50.962;6.960;2023-07-16T07:54:31;23.10;93.70
35246;DHT22;21379;50.962;6.960;2023-07-16T07:57:00;22.90;93.20
35246;DHT22;21379;50.962;6.960;2023-07-16T07:59:28;22.70;93.50
35246;DHT22;21379;50.962;6.960;2023-07-16T08:01:56;22.90;93.30
35246;DHT22;21379;50.962;6.960;2023-07-16T08:04:25;22.90;93.10
35246;DHT22;21379;50.962;6.960;2023-07-16T08:06:53;23.00;92.70
35246;DHT22;21379;50.962;6.960;2023-07-16T08:09:20;23.30;92.60
35246;DHT22;21379;50.962;6.960;2023-07-16T08:11:47;23.40;92.90
35246;DHT22;21379;50.962;6.960;2023-07-16T08:14:14;23.80;92.70
35246;DHT22;21379;50.962;6.960;2023-07-16T08:16:41;24.00;92.00
35246;DHT22;21379;50.962;6.960;2023-07-16T08:19:08;24.00;91.00
35246;DHT22;21379;50.962;6.960;2023-07-16T08:21:36;23.80;91.40
35246;DHT22;21379;50.962;6.960;2023-07-16T08:24:05;23.70;92.00
35246;DHT22;21379;50.962;6.960;2023-07-16T08:26:31;23.80;91.00
35246;DHT22;21379;50.962;6.960;2023-07-16T08:28:58;24.10;91.00
35246;DHT22;21379;50.962;6.960;2023-07-16T08:31:26;24.30;90.90
35246;DHT22;21379;50.962;6.960;2023-07-16T08:33:53;24.50;90.20
35246;DHT22;21379;50.962;6.960;2023-07-16T08:36:20;24.50;90.70
35246;DHT22;21379;50.962;6.960;2023-07-16T08:38:49;24.50;89.80
35246;DHT22;21379;50.962;6.960;2023-07-16T08:41:16;24.50;88.10
35246;DHT22;21379;50.962;6.960;2023-07-16T08:43:45;24.50;89.20
35246;DHT22;21379;50.962;6.960;2023-07-16T08:46:13;24.60;88.90
35246;DHT22;21379;50.962;6.960;2023-07-16T08:48:40;25.00;89.20
35246;DHT22;21379;50.962;6.960;2023-07-16T08:51:09;25.30;88.50
35246;DHT22;21379;50.962;6.960;2023-07-16T08:53:37;25.80;88.30
35246;DHT22;21379;50.962;6.960;2023-07-16T08:56:06;25.70;86.90
35246;DHT22;21379;50.962;6.960;2023-07-16T08:58:33;25.60;88.10
35246;DHT22;21379;50.962;6.960;2023-07-16T09:01:00;25.40;85.80
35246;DHT22;21379;50.962;6.960;2023-07-16T09:03:27;25.20;87.40
35246;DHT22;21379;50.962;6.960;2023-07-16T09:05:55;25.30;86.70
35246;DHT22;21379;50.962;6.960;2023-07-16T09:08:21;25.60;85.90
35246;DHT22;21379;50.962;6.960;2023-07-16T09:10:54;25.50;86.10
35246;DHT22;21379;50.962;6.960;2023-07-16T09:13:23;25.50;86.40
35246;DHT22;21379;50.962;6.960;2023-07-16T09:15:52;25.00;86.30
35246;DHT22;21379;50.962;6.960;2023-07-16T09:18:20;25.30;87.10
35246;DHT22;21379;50.962;6.960;2023-07-16T09:20:48;25.60;86.00
35246;DHT22;21379;50.962;6.960;2023-07-16T09:23:17;25.60;85.00
35246;DHT22;21379;50.962;6.960;2023-07-16T09:25:44;25.40;84.30
35246;DHT22;21379;50.962;6.960;2023-07-16T09:28:12;25.50;85.90
35246;DHT22;21379;50.962;6.960;2023-07-16T09:30:40;25.90;85.90
35246;DHT22;21379;50.962;6.960;2023-07-16T09:33:10;25.50;84.60
35246;DHT22;21379;50.962;6.960;2023-07-16T09:35:38;24.80;86.10
35246;DHT22;21379;50.962;6.960;2023-07-16T09:38:06;24.50;87.00
35246;DHT22;21379;50.962;6.960;2023-07-16T09:40:33;24.60;85.60
35246;DHT22;21379;50.962;6.960;2023-07-16T09:43:01;24.20;86.40
35246;DHT22;21379;50.962;6.960;2023-07-16T09:45:28;24.90;88.10
35246;DHT22;21379;50.962;6.960;2023-07-16T09:47:57;24.40;86.40
35246;DHT22;21379;50.962;6.960;2023-07-16T09:50:24;24.80;86.40
35246;DHT22;21379;50.962;6.960;2023-07-16T09:52:53;24.80;86.20
35246;DHT22;21379;50.962;6.960;2023-07-16T09:55:22;25.60;85.90
35246;DHT22;21379;50.962;6.960;2023-07-16T09:57:51;25.40;85.60
35246;DHT22;21379;50.962;6.960;2023-07-16T10:00:19;25.70;85.70
35246;DHT22;21379;50.962;6.960;2023-07-16T10:02:48;25.70;85.80
35246;DHT22;21379;50.962;6.960;2023-07-16T10:05:18;25.60;84.70
35246;DHT22;21379;50.962;6.960;2023-07-16T10:07:50;25.90;85.20
35246;DHT22;21379;50.962;6.960;2023-07-16T10:10:18;25.30;85.00
35246;DHT22;21379;50.962;6.960;2023-07-16T10:12:55;25.50;85.30
35246;DHT22;21379;50.962;6.960;2023-07-16T10:15:25;25.90;84.70
35246;DHT22;21379;50.962;6.960;2023-07-16T10:17:53;25.90;84.90
35246;DHT22;21379;50.962;6.960;2023-07-16T10:20:30;26.10;84.70
35246;DHT22;21379;50.962;6.960;2023-07-16T10:22:57;25.60;85.00
35246;DHT22;21379;50.962;6.960;2023-07-16T10:25:25;25.30;86.60
35246;DHT22;21379;50.962;6.960;2023-07-16T10:27:54;25.30;85.80
35246;DHT22;21379;50.962;6.960;2023-07-16T10:30:21;24.80;85.40
35246;DHT22;21379;50.962;6.960;2023-07-16T10:32:51;25.20;84.20
35246;DHT22;21379;50.962;6.960;2023-07-16T10:35:18;26.30;83.80
35246;DHT22;21379;50.962;6.960;2023-07-16T10:37:46;25.90;83.40
35246;DHT22;21379;50.962;6.960;2023-07-16T10:40:14;25.40;83.40
35246;DHT22;21379;50.962;6.960;2023-07-16T10:42:42;24.80;84.70
35246;DHT22;21379;50.962;6.960;2023-07-16T10:45:10;25.00;83.90
35246;DHT22;21379;50.962;6.960;2023-07-16T10:47:37;25.20;85.20
35246;DHT22;21379;50.962;6.960;2023-07-16T10:50:06;24.90;83.40
35246;DHT22;21379;50.962;6.960;2023-07-16T10:52:34;24.80;84.50
35246;DHT22;21379;50.962;6.960;2023-07-16T10:55:03;24.60;84.50
35246;DHT22;21379;50.962;6.960;2023-07-16T10:57:29;24.40;84.80
35246;DHT22;21379;50.962;6.960;2023-07-16T10:59:58;24.20;85.60
35246;DHT22;21379;50.962;6.960;2023-07-16T11:02:26;24.10;85.20
35246;DHT22;21379;50.962;6.960;2023-07-16T11:04:53;24.10;84.90
35246;DHT22;21379;50.962;6.960;2023-07-16T11:07:21;24.10;85.30
35246;DHT22;21379;50.962;6.960;2023-07-16T11:09:49;24.20;86.10
35246;DHT22;21379;50.962;6.960;2023-07-16T11:12:19;24.70;86.30
35246;DHT22;21379;50.962;6.960;2023-07-16T11:14:47;25.00;84.50
35246;DHT22;21379;50.962;6.960;2023-07-16T11:17:14;24.70;85.80
35246;DHT22;21379;50.962;6.960;2023-07-16T11:19:45;24.50;85.20
35246;DHT22;21379;50.962;6.960;2023-07-16T11:22:13;24.50;83.90
35246;DHT22;21379;50.962;6.960;2023-07-16T11:24:40;24.20;84.20
35246;DHT22;21379;50.962;6.960;2023-07-16T11:27:13;24.50;85.00
35246;DHT22;21379;50.962;6.960;2023-07-16T11:29:45;24.30;84.40
35246;DHT22;21379;50.962;6.960;2023-07-16T11:32:12;24.20;84.60
35246;DHT22;21379;50.962;6.960;2023-07-16T11:34:51;24.10;85.60
35246;DHT22;21379;50.962;6.960;2023-07-16T11:37:19;24.30;85.10
35246;DHT22;21379;50.962;6.960;2023-07-16T11:39:48;24.50;84.40
35246;DHT22;21379;50.962;6.960;2023-07-16T11:42:20;24.50;83.20
35246;DHT22;21379;50.962;6.960;2023-07-16T11:44:51;24.80;84.10
35246;DHT22;21379;50.962;6.960;2023-07-16T11:47:18;25.20;83.00
35246;DHT22;21379;50.962;6.960;2023-07-16T11:49:44;25.70;85.10
35246;DHT22;21379;50.962;6.960;2023-07-16T11:52:11;25.90;82.60
35246;DHT22;21379;50.962;6.960;2023-07-16T11:54:38;25.60;82.20
35246;DHT22;21379;50.962;6.960;2023-07-16T11:57:06;25.60;82.40
35246;DHT22;21379;50.962;6.960;2023-07-16T11:59:32;25.20;84.80
35246;DHT22;21379;50.962;6.960;2023-07-16T12:02:01;25.10;85.90
35246;DHT22;21379;50.962;6.960;2023-07-16T12:04:28;24.90;83.50
35246;DHT22;21379;50.962;6.960;2023-07-16T12:06:55;24.60;85.20
35246;DHT22;21379;50.962;6.960;2023-07-16T12:09:22;24.70;83.30
35246;DHT22;21379;50.962;6.960;2023-07-16T12:11:49;25.50;83.80
35246;DHT22;21379;50.962;6.960;2023-07-16T12:14:16;25.70;82.80
35246;DHT22;21379;50.962;6.960;2023-07-16T12:16:42;25.40;80.70
35246;DHT22;21379;50.962;6.960;2023-07-16T12:19:11;25.40;82.80
35246;DHT22;21379;50.962;6.960;2023-07-16T12:21:38;25.30;82.80
35246;DHT22;21379;50.962;6.960;2023-07-16T12:24:05;25.00;82.50
35246;DHT22;21379;50.962;6.960;2023-07-16T12:26:32;24.90;82.80
35246;DHT22;21379;50.962;6.960;2023-07-16T12:29:00;25.10;82.50
35246;DHT22;21379;50.962;6.960;2023-07-16T12:31:29;25.60;81.30
35246;DHT22;21379;50.962;6.960;2023-07-16T12:33:57;26.00;80.30
35246;DHT22;21379;50.962;6.960;2023-07-16T12:36:25;25.50;80.70
35246;DHT22;21379;50.962;6.960;2023-07-16T12:38:52;25.40;81.30
35246;DHT22;21379;50.962;6.960;2023-07-16T12:41:19;25.00;82.70
35246;DHT22;21379;50.962;6.960;2023-07-16T12:43:46;25.40;82.20
35246;DHT22;21379;50.962;6.960;2023-07-16T12:46:13;25.40;82.40
35246;DHT22;21379;50.962;6.960;2023-07-16T12:48:40;25.40;83.70
35246;DHT22;21379;50.962;6.960;2023-07-16T12:51:07;25.70;81.00
35246;DHT22;21379;50.962;6.960;2023-07-16T12:53:35;25.90;80.90
35246;DHT22;21379;50.962;6.960;2023-07-16T12:56:02;25.60;81.10
35246;DHT22;21379;50.962;6.960;2023-07-16T12:58:29;25.50;81.00
35246;DHT22;21379;50.962;6.960;2023-07-16T13:00:56;25.90;82.50
35246;DHT22;21379;50.962;6.960;2023-07-16T13:03:23;26.00;81.10
35246;DHT22;21379;50.962;6.960;2023-07-16T13:05:50;25.90;80.90
35246;DHT22;21379;50.962;6.960;2023-07-16T13:08:17;25.70;81.50
35246;DHT22;21379;50.962;6.960;2023-07-16T13:10:45;25.80;82.00
35246;DHT22;21379;50.962;6.960;2023-07-16T13:13:12;26.10;81.80
35246;DHT22;21379;50.962;6.960;2023-07-16T13:15:39;25.60;82.80
35246;DHT22;21379;50.962;6.960;2023-07-16T13:18:06;25.40;81.30
35246;DHT22;21379;50.962;6.960;2023-07-16T13:20:32;25.60;80.60
35246;DHT22;21379;50.962;6.960;2023-07-16T13:22:59;26.20;80.50
35246;DHT22;21379;50.962;6.960;2023-07-16T13:25:26;25.70;81.20
35246;DHT22;21379;50.962;6.960;2023-07-16T13:27:56;25.60;81.30
35246;DHT22;21379;50.962;6.960;2023-07-16T13:30:23;25.70;81.80
35246;DHT22;21379;50.962;6.960;2023-07-16T13:32:51;26.20;80.50
35246;DHT22;21379;50.962;6.960;2023-07-16T13:35:20;25.90;81.90
35246;DHT22;21379;50.962;6.960;2023-07-16T13:37:47;25.80;81.30
35246;DHT22;21379;50.962;6.960;2023-07-16T13:40:14;25.40;80.50
35246;DHT22;21379;50.962;6.960;2023-07-16T13:42:41;25.60;80.80
35246;DHT22;21379;50.962;6.960;2023-07-16T13:45:10;25.70;81.30
35246;DHT22;21379;50.962;6.960;2023-07-16T13:47:36;25.80;82.30
35246;DHT22;21379;50.962;6.960;2023-07-16T13:50:04;26.70;80.10
35246;DHT22;21379;50.962;6.960;2023-07-16T13:52:31;26.80;78.30
35246;DHT22;21379;50.962;6.960;2023-07-16T13:54:58;26.30;80.30
35246;DHT22;21379;50.962;6.960;2023-07-16T13:57:26;25.70;78.40
35246;DHT22;21379;50.962;6.960;2023-07-16T13:59:53;25.40;80.30
35246;DHT22;21379;50.962;6.960;2023-07-16T14:02:21;25.10;80.70
35246;DHT22;21379;50.962;6.960;2023-07-16T14:04:48;25.30;81.00
35246;DHT22;21379;50.962;6.960;2023-07-16T14:07:15;25.90;81.80
35246;DHT22;21379;50.962;6.960;2023-07-16T14:09:42;26.30;79.00
35246;DHT22;21379;50.962;6.960;2023-07-16T14:12:09;26.20;77.10
35246;DHT22;21379;50.962;6.960;2023-07-16T14:14:36;26.00;77.80
35246;DHT22;21379;50.962;6.960;2023-07-16T14:17:03;25.60;78.10
35246;DHT22;21379;50.962;6.960;2023-07-16T14:19:31;25.20;79.50
35246;DHT22;21379;50.962;6.960;2023-07-16T14:21:58;25.10;80.30
35246;DHT22;21379;50.962;6.960;2023-07-16T14:24:25;25.10;79.80
35246;DHT22;21379;50.962;6.960;2023-07-16T14:26:52;25.40;80.50
35246;DHT22;21379;50.962;6.960;2023-07-16T14:29:19;25.70;81.70
35246;DHT22;21379;50.962;6.960;2023-07-16T14:31:46;26.70;79.80
35246;DHT22;21379;50.962;6.960;2023-07-16T14:34:13;27.00;77.60
35246;DHT22;21379;50.962;6.960;2023-07-16T14:36:42;26.70;77.90
35246;DHT22;21379;50.962;6.960;2023-07-16T14:39:09;26.30;78.80
35246;DHT22;21379;50.962;6.960;2023-07-16T14:41:35;26.00;80.10
35246;DHT22;21379;50.962;6.960;2023-07-16T14:44:04;25.90;78.40
35246;DHT22;21379;50.962;6.960;2023-07-16T14:46:31;25.70;78.50
35246;DHT22;21379;50.962;6.960;2023-07-16T14:48:58;25.50;78.60
35246;DHT22;21379;50.962;6.960;2023-07-16T14:51:24;25.30;79.90
35246;DHT22;21379;50.962;6.960;2023-07-16T14:53:53;25.30;81.90
35246;DHT22;21379;50.962;6.960;2023-07-16T14:56:20;25.20;80.50
35246;DHT22;21379;50.962;6.960;2023-07-16T14:58:47;25.00;79.60
35246;DHT22;21379;50.962;6.960;2023-07-16T15:01:13;24.80;81.30
35246;DHT22;21379;50.962;6.960;2023-07-16T15:03:40;25.00;80.30
35246;DHT22;21379;50.962;6.960;2023-07-16T15:06:07;25.10;80.30
35246;DHT22;21379;50.962;6.960;2023-07-16T15:08:35;25.50;80.80
35246;DHT22;21379;50.962;6.960;2023-07-16T15:11:03;25.70;79.60
35246;DHT22;21379;50.962;6.960;2023-07-16T15:13:30;25.90;80.40
35246;DHT22;21379;50.962;6.960;2023-07-16T15:15:57;25.80;79.30
35246;DHT22;21379;50.962;6.960;2023-07-16T15:18:24;25.60;78.20
35246;DHT22;21379;50.962;6.960;2023-07-16T15:20:56;25.40;79.70
35246;DHT22;21379;50.962;6.960;2023-07-16T15:23:24;25.30;78.80
35246;DHT22;21379;50.962;6.960;2023-07-16T15:25:51;25.30;79.50
35246;DHT22;21379;50.962;6.960;2023-07-16T15:28:19;25.60;78.80
35246;DHT22;21379;50.962;6.960;2023-07-16T15:30:47;25.50;78.80
35246;DHT22;21379;50.962;6.960;2023-07-16T15:33:13;25.50;80.20